Time;durP1;ratioP1;P1;durP2;ratioP2;P2;SDS_P1;SDS_P2;PMS_P1;PMS_P2;Temp;Humidity;BMP_temperature;BMP_pressure;BME280_temperature;BME280_humidity;BME280_pressure;Samples;Min_cycle;Max_cycle;Signal;HPM_P1;HPM_P2
2023/08/19 00:00:45;;;;;;;2.65;1.63;;;;;;;;;;5017975;28;20461;-62
2023/08/19 00:03:11;;;;;;;2.72;1.92;;;;;;;;;;5033857;28;20028;-62
2023/08/19 00:05:36;;;;;;;3.05;1.80;;;;;;;;;;5017997;28;20480;-62
2023/08/19 00:08:03;;;;;;;2.63;1.73;;;;;;;;;;5017930;28;20026;-62
2023/08/19 00:10:28;;;;;;;3.10;2.05;;;;;;;;;;5017058;28;20052;-62
2023/08/19 00:12:54;;;;;;;2.20;1.55;;;;;;;;;;5017801;28;20053;-62
2023/08/19 00:15:19;;;;;;;3.33;1.77;;;;;;;;;;5017622;28;20026;-62
2023/08/19 00:17:45;;;;;;;3.40;2.00;;;;;;;;;;5017603;28;20017;-62
2023/08/19 00:20:11;;;;;;;2.70;1.75;;;;;;;;;;5033264;28;20041;-62
2023/08/19 00:22:37;;;;;;;2.58;1.73;;;;;;;;;;5017907;28;20108;-62
2023/08/19 00:25:04;;;;;;;2.75;1.73;;;;;;;;;;5001269;28;20456;-62
2023/08/19 00:27:30;;;;;;;3.35;2.03;;;;;;;;;;5033810;28;20391;-62
2023/08/19 00:29:55;;;;;;;2.97;1.80;;;;;;;;;;5017112;28;20029;-63
2023/08/19 00:32:23;;;;;;;3.60;1.90;;;;;;;;;;5017515;28;20026;-62
2023/08/19 00:34:49;;;;;;;2.67;1.50;;;;;;;;;;5017630;28;20541;-62
2023/08/19 00:37:14;;;;;;;3.33;1.90;;;;;;;;;;5017375;28;20026;-62
2023/08/19 00:39:40;;;;;;;3.78;2.03;;;;;;;;;;5016884;28;20064;-62
2023/08/19 00:42:06;;;;;;;3.38;1.70;;;;;;;;;;5017266;28;20025;-62
2023/08/19 00:44:34;;;;;;;2.25;1.60;;;;;;;;;;5016213;28;20562;-63
2023/08/19 00:47:01;;;;;;;2.83;1.63;;;;;;;;;;5033630;28;20036;-62
2023/08/19 00:49:28;;;;;;;3.35;1.70;;;;;;;;;;5033178;28;20097;-62
2023/08/19 00:51:53;;;;;;;2.70;1.85;;;;;;;;;;5032938;28;20108;-62
2023/08/19 00:54:19;;;;;;;2.60;1.80;;;;;;;;;;5017057;28;20033;-61
2023/08/19 00:56:45;;;;;;;3.17;2.10;;;;;;;;;;5017075;28;20032;-65
2023/08/19 00:59:11;;;;;;;2.60;1.60;;;;;;;;;;5016788;28;20075;-62
2023/08/19 01:01:36;;;;;;;2.45;1.55;;;;;;;;;;4999977;28;20041;-62
2023/08/19 01:04:02;;;;;;;3.22;1.85;;;;;;;;;;5033231;28;20037;-62
2023/08/19 01:06:34;;;;;;;3.65;1.80;;;;;;;;;;5016854;28;20033;-62
2023/08/19 01:09:07;;;;;;;2.65;1.45;;;;;;;;;;5032792;28;20036;-63
2023/08/19 01:11:46;;;;;;;3.50;1.70;;;;;;;;;;5033594;28;20021;-62
2023/08/19 01:14:20;;;;;;;3.17;1.67;;;;;;;;;;5032724;28;20045;-62
2023/08/19 01:16:48;;;;;;;4.40;1.70;;;;;;;;;;5017267;28;20053;-62
2023/08/19 01:19:19;;;;;;;3.50;1.88;;;;;;;;;;5032502;28;20041;-62
2023/08/19 01:21:45;;;;;;;2.97;1.67;;;;;;;;;;5016405;28;20171;-62
2023/08/19 01:24:10;;;;;;;2.85;1.70;;;;;;;;;;5032454;28;20112;-62
2023/08/19 01:26:36;;;;;;;2.20;1.58;;;;;;;;;;5017201;28;20017;-62
2023/08/19 01:29:01;;;;;;;3.30;1.90;;;;;;;;;;5015499;28;20448;-62
2023/08/19 01:31:27;;;;;;;2.88;1.65;;;;;;;;;;5016386;28;20022;-62
2023/08/19 01:33:52;;;;;;;3.63;2.00;;;;;;;;;;5016433;28;20033;-62
2023/08/19 01:36:24;;;;;;;3.25;1.80;;;;;;;;;;5016323;28;20061;-63
2023/08/19 01:38:52;;;;;;;3.10;2.00;;;;;;;;;;4999304;28;20072;-61
2023/08/19 01:41:19;;;;;;;3.30;1.60;;;;;;;;;;5032290;28;20021;-62
2023/08/19 01:43:45;;;;;;;2.65;1.50;;;;;;;;;;5015967;28;20025;-63
2023/08/19 01:46:11;;;;;;;3.15;1.85;;;;;;;;;;5016366;28;20026;-64
2023/08/19 01:48:37;;;;;;;2.90;1.75;;;;;;;;;;5031797;28;20518;-64
2023/08/19 01:51:02;;;;;;;3.55;2.08;;;;;;;;;;5016175;28;20025;-63
2023/08/19 01:53:28;;;;;;;3.83;2.10;;;;;;;;;;5016171;28;20056;-63
2023/08/19 01:55:54;;;;;;;2.70;1.73;;;;;;;;;;5015928;28;20033;-63
2023/08/19 01:58:19;;;;;;;2.53;1.58;;;;;;;;;;5015743;28;20033;-65
2023/08/19 02:00:45;;;;;;;3.22;1.85;;;;;;;;;;5032504;28;20029;-64
2023/08/19 02:03:10;;;;;;;3.63;1.80;;;;;;;;;;5015933;28;20079;-63
2023/08/19 02:05:36;;;;;;;3.55;1.83;;;;;;;;;;5033221;28;20377;-62
2023/08/19 02:08:04;;;;;;;3.47;1.75;;;;;;;;;;5032011;28;20036;-62
2023/08/19 02:10:31;;;;;;;2.78;1.60;;;;;;;;;;5015759;28;20033;-63
2023/08/19 02:12:56;;;;;;;3.40;1.75;;;;;;;;;;5016005;28;20021;-63
2023/08/19 02:15:22;;;;;;;3.15;1.88;;;;;;;;;;5015944;28;20424;-62
2023/08/19 02:17:47;;;;;;;3.28;1.63;;;;;;;;;;5014965;28;20030;-63
2023/08/19 02:20:13;;;;;;;3.90;1.90;;;;;;;;;;5030762;28;20120;-62
2023/08/19 02:22:40;;;;;;;3.05;1.85;;;;;;;;;;5016648;28;20436;-62
2023/08/19 02:25:07;;;;;;;4.57;2.20;;;;;;;;;;5032276;28;20033;-62
2023/08/19 02:27:32;;;;;;;2.90;1.75;;;;;;;;;;5031541;28;20029;-64
2023/08/19 02:29:59;;;;;;;4.32;1.88;;;;;;;;;;5015058;28;20032;-62
2023/08/19 02:32:28;;;;;;;2.80;1.52;;;;;;;;;;5032265;28;20116;-62
2023/08/19 02:34:53;;;;;;;3.38;1.70;;;;;;;;;;5015777;28;20030;-62
2023/08/19 02:37:19;;;;;;;3.63;1.77;;;;;;;;;;5015801;28;20031;-62
2023/08/19 02:39:44;;;;;;;3.83;1.80;;;;;;;;;;5015024;28;20033;-62
2023/08/19 02:42:15;;;;;;;3.25;1.88;;;;;;;;;;5016291;28;20030;-62
2023/08/19 02:44:41;;;;;;;3.75;1.65;;;;;;;;;;5033208;28;20021;-62
2023/08/19 02:47:06;;;;;;;4.47;1.98;;;;;;;;;;5015663;28;20138;-62
2023/08/19 02:49:32;;;;;;;3.10;1.73;;;;;;;;;;5014382;28;20069;-62
2023/08/19 02:51:57;;;;;;;3.63;1.77;;;;;;;;;;5015664;28;20033;-62
2023/08/19 02:54:23;;;;;;;2.88;1.52;;;;;;;;;;5015637;28;20017;-62
2023/08/19 02:56:49;;;;;;;3.20;1.90;;;;;;;;;;5032306;28;20033;-61
2023/08/19 02:59:14;;;;;;;2.78;1.58;;;;;;;;;;5014743;28;20384;-61
2023/08/19 03:01:40;;;;;;;2.40;1.60;;;;;;;;;;5015226;28;20091;-63
2023/08/19 03:04:05;;;;;;;3.83;1.70;;;;;;;;;;5014808;28;20064;-62
2023/08/19 03:06:33;;;;;;;3.42;1.63;;;;;;;;;;5032939;28;20080;-62
2023/08/19 03:08:58;;;;;;;2.88;1.90;;;;;;;;;;5018768;28;20124;-62
2023/08/19 03:11:24;;;;;;;3.20;1.83;;;;;;;;;;5018950;28;20120;-62
2023/08/19 03:13:49;;;;;;;3.30;1.73;;;;;;;;;;5018941;28;20033;-62
2023/08/19 03:16:15;;;;;;;2.80;1.60;;;;;;;;;;5018886;28;20022;-62
2023/08/19 03:18:41;;;;;;;3.08;1.50;;;;;;;;;;5034223;28;20029;-62
2023/08/19 03:21:06;;;;;;;3.10;1.67;;;;;;;;;;5018802;28;20078;-61
2023/08/19 03:23:32;;;;;;;3.08;1.55;;;;;;;;;;5018796;28;20388;-63
2023/08/19 03:25:58;;;;;;;3.28;1.60;;;;;;;;;;5018558;28;20017;-61
2023/08/19 03:28:24;;;;;;;3.67;1.73;;;;;;;;;;5035798;28;20079;-62
2023/08/19 03:30:50;;;;;;;2.75;1.52;;;;;;;;;;5034506;28;20067;-62
2023/08/19 03:33:15;;;;;;;2.78;1.60;;;;;;;;;;5019401;28;20117;-62
2023/08/19 03:35:41;;;;;;;2.75;1.52;;;;;;;;;;5018285;28;20160;-62
2023/08/19 03:38:06;;;;;;;3.42;1.50;;;;;;;;;;5018984;28;20052;-62
2023/08/19 03:40:32;;;;;;;3.08;1.40;;;;;;;;;;5018292;28;20484;-62
2023/08/19 03:42:57;;;;;;;3.20;1.50;;;;;;;;;;5018404;28;20032;-62
2023/08/19 03:45:23;;;;;;;2.42;1.35;;;;;;;;;;5034851;28;20025;-64
2023/08/19 03:47:48;;;;;;;2.65;1.40;;;;;;;;;;5017389;28;20030;-63
2023/08/19 03:50:14;;;;;;;2.63;1.40;;;;;;;;;;5017965;28;20033;-62
2023/08/19 03:52:39;;;;;;;2.85;1.42;;;;;;;;;;5034190;28;20101;-62
2023/08/19 03:55:05;;;;;;;2.90;1.27;;;;;;;;;;5018119;28;20022;-62
2023/08/19 03:57:30;;;;;;;2.40;1.25;;;;;;;;;;5017868;28;20095;-62
2023/08/19 03:59:56;;;;;;;2.50;1.40;;;;;;;;;;5017203;28;20041;-62
2023/08/19 04:02:22;;;;;;;3.08;1.23;;;;;;;;;;5018316;28;20522;-62
2023/08/19 04:04:58;;;;;;;2.85;1.25;;;;;;;;;;5017698;28;20099;-64
2023/08/19 04:07:23;;;;;;;3.67;1.35;;;;;;;;;;5017922;28;20480;-63
2023/08/19 04:09:49;;;;;;;2.35;1.30;;;;;;;;;;5017878;28;20061;-63
2023/08/19 04:12:15;;;;;;;2.60;1.30;;;;;;;;;;5017526;28;20029;-62
2023/08/19 04:14:42;;;;;;;2.53;1.50;;;;;;;;;;5034618;28;20057;-62
2023/08/19 04:17:07;;;;;;;2.92;1.58;;;;;;;;;;5017549;28;20025;-62
2023/08/19 04:19:33;;;;;;;3.13;1.20;;;;;;;;;;5016779;28;20022;-62
2023/08/19 04:21:58;;;;;;;2.22;1.23;;;;;;;;;;5033686;28;20571;-62
2023/08/19 04:24:24;;;;;;;2.47;1.17;;;;;;;;;;5032616;28;20040;-62
2023/08/19 04:26:49;;;;;;;2.17;1.33;;;;;;;;;;5017605;28;20480;-62
2023/08/19 04:29:15;;;;;;;3.13;1.48;;;;;;;;;;5035600;28;20021;-62
2023/08/19 04:31:40;;;;;;;2.28;1.33;;;;;;;;;;5017509;28;20030;-62
2023/08/19 04:34:05;;;;;;;3.55;1.30;;;;;;;;;;5017086;28;20029;-62
2023/08/19 04:36:31;;;;;;;2.03;1.20;;;;;;;;;;5033550;28;20411;-62
2023/08/19 04:38:57;;;;;;;1.88;1.10;;;;;;;;;;5017180;28;20033;-62
2023/08/19 04:41:22;;;;;;;2.08;1.02;;;;;;;;;;5017340;28;20025;-62
2023/08/19 04:43:48;;;;;;;2.97;1.20;;;;;;;;;;5017232;28;20112;-62
2023/08/19 04:46:13;;;;;;;2.50;1.27;;;;;;;;;;5017254;28;20076;-63
2023/08/19 04:48:39;;;;;;;4.13;1.48;;;;;;;;;;5017194;28;20417;-62
2023/08/19 04:51:04;;;;;;;2.63;1.20;;;;;;;;;;5016865;28;20079;-62
2023/08/19 04:53:30;;;;;;;2.20;1.30;;;;;;;;;;5032694;28;20091;-63
2023/08/19 04:56:01;;;;;;;2.72;1.10;;;;;;;;;;5033015;28;20017;-64
2023/08/19 04:58:27;;;;;;;2.00;1.20;;;;;;;;;;5016864;28;20534;-62
2023/08/19 05:00:52;;;;;;;2.55;1.30;;;;;;;;;;4999782;28;20045;-62
2023/08/19 05:03:18;;;;;;;3.00;1.20;;;;;;;;;;5015702;28;20033;-62
2023/08/19 05:05:44;;;;;;;2.60;1.10;;;;;;;;;;5033153;28;20021;-62
2023/08/19 05:08:10;;;;;;;3.00;1.25;;;;;;;;;;5033025;28;20033;-63
2023/08/19 05:10:36;;;;;;;2.42;1.10;;;;;;;;;;5016857;28;20453;-62
2023/08/19 05:13:02;;;;;;;3.15;1.30;;;;;;;;;;5000252;28;20036;-62
2023/08/19 05:15:27;;;;;;;1.88;0.93;;;;;;;;;;5016769;28;20025;-63
2023/08/19 05:17:52;;;;;;;2.05;1.20;;;;;;;;;;5016702;28;20029;-62
2023/08/19 05:20:18;;;;;;;2.00;1.00;;;;;;;;;;5016312;28;20021;-63
2023/08/19 05:22:44;;;;;;;2.03;1.30;;;;;;;;;;5015787;28;20028;-63
2023/08/19 05:25:09;;;;;;;2.75;1.30;;;;;;;;;;5032648;28;20261;-65
2023/08/19 05:27:35;;;;;;;2.67;1.25;;;;;;;;;;5016475;28;20025;-62
2023/08/19 05:30:01;;;;;;;2.10;1.17;;;;;;;;;;5016072;28;20460;-64
2023/08/19 05:32:26;;;;;;;1.75;1.10;;;;;;;;;;5016354;28;20026;-62
2023/08/19 05:34:52;;;;;;;2.38;1.38;;;;;;;;;;5016285;28;20022;-62
2023/08/19 05:37:18;;;;;;;1.75;1.10;;;;;;;;;;5016533;28;20029;-63
2023/08/19 05:39:43;;;;;;;2.45;1.23;;;;;;;;;;5016063;28;20029;-62
2023/08/19 05:42:09;;;;;;;2.22;1.40;;;;;;;;;;5016611;28;20036;-62
2023/08/19 05:44:34;;;;;;;3.67;1.40;;;;;;;;;;5016321;28;20461;-63
2023/08/19 05:47:00;;;;;;;2.13;1.13;;;;;;;;;;5016833;28;20028;-62
2023/08/19 05:49:25;;;;;;;2.20;1.20;;;;;;;;;;5016205;28;20510;-62
2023/08/19 05:51:51;;;;;;;2.88;1.30;;;;;;;;;;5015970;28;20021;-62
2023/08/19 05:54:16;;;;;;;2.63;1.63;;;;;;;;;;5015915;28;20021;-62
2023/08/19 05:56:42;;;;;;;2.22;1.20;;;;;;;;;;5016140;28;20025;-62
2023/08/19 05:59:07;;;;;;;2.10;1.20;;;;;;;;;;5015742;28;20029;-62
2023/08/19 06:01:33;;;;;;;2.22;1.23;;;;;;;;;;5015978;28;20025;-64
2023/08/19 06:03:58;;;;;;;2.63;1.23;;;;;;;;;;5015775;28;20079;-63
2023/08/19 06:06:23;;;;;;;3.00;1.48;;;;;;;;;;5016096;28;20029;-63
2023/08/19 06:08:49;;;;;;;3.55;1.52;;;;;;;;;;5016085;28;20025;-62
2023/08/19 06:11:15;;;;;;;3.25;1.50;;;;;;;;;;5016086;28;20165;-62
2023/08/19 06:13:40;;;;;;;3.03;1.67;;;;;;;;;;5016032;28;20036;-62
2023/08/19 06:16:06;;;;;;;2.13;1.60;;;;;;;;;;5032375;28;20411;-63
2023/08/19 06:18:31;;;;;;;2.22;1.30;;;;;;;;;;5015903;28;20064;-62
2023/08/19 06:20:57;;;;;;;2.30;1.52;;;;;;;;;;5015926;28;20033;-62
2023/08/19 06:23:22;;;;;;;3.28;1.50;;;;;;;;;;5032231;28;20056;-62
2023/08/19 06:25:49;;;;;;;3.45;1.30;;;;;;;;;;5015960;28;20067;-62
2023/08/19 06:28:15;;;;;;;1.83;1.00;;;;;;;;;;5016711;28;20032;-62
2023/08/19 06:30:41;;;;;;;3.47;1.30;;;;;;;;;;5033271;28;20079;-62
2023/08/19 06:33:07;;;;;;;3.05;1.60;;;;;;;;;;5032975;28;20033;-62
2023/08/19 06:35:32;;;;;;;2.55;1.13;;;;;;;;;;5016356;28;20072;-62
2023/08/19 06:37:59;;;;;;;2.40;1.40;;;;;;;;;;5032223;28;20059;-63
2023/08/19 06:40:26;;;;;;;2.10;1.30;;;;;;;;;;5015426;28;20380;-62
2023/08/19 06:42:52;;;;;;;3.55;1.50;;;;;;;;;;5019330;28;20065;-63
2023/08/19 06:45:18;;;;;;;2.72;1.20;;;;;;;;;;5003009;28;20479;-62
2023/08/19 06:47:45;;;;;;;2.78;1.10;;;;;;;;;;5020069;28;20060;-62
2023/08/19 06:50:12;;;;;;;2.33;1.13;;;;;;;;;;5019467;28;20037;-63
2023/08/19 06:52:38;;;;;;;6.03;1.65;;;;;;;;;;5019852;28;20412;-62
2023/08/19 06:55:04;;;;;;;2.22;1.33;;;;;;;;;;5035313;28;20111;-62
2023/08/19 06:57:35;;;;;;;2.58;1.40;;;;;;;;;;5019198;28;20021;-62
2023/08/19 07:00:11;;;;;;;2.20;1.20;;;;;;;;;;5018961;28;20029;-62
2023/08/19 07:02:38;;;;;;;1.75;1.05;;;;;;;;;;5035422;28;20035;-62
2023/08/19 07:05:14;;;;;;;2.67;1.40;;;;;;;;;;5019254;28;20037;-62
2023/08/19 07:07:43;;;;;;;2.08;1.33;;;;;;;;;;5035564;28;20025;-63
2023/08/19 07:10:09;;;;;;;3.58;1.52;;;;;;;;;;5019593;28;20032;-62
2023/08/19 07:12:34;;;;;;;2.60;1.25;;;;;;;;;;5036534;28;20013;-62
2023/08/19 07:15:00;;;;;;;2.60;1.33;;;;;;;;;;5018980;28;20373;-63
2023/08/19 07:17:27;;;;;;;2.63;1.33;;;;;;;;;;5018180;28;20067;-63
2023/08/19 07:19:53;;;;;;;2.13;1.27;;;;;;;;;;5018509;28;20022;-62
2023/08/19 07:22:20;;;;;;;2.40;1.38;;;;;;;;;;5018787;28;20032;-62
2023/08/19 07:24:47;;;;;;;2.70;1.20;;;;;;;;;;5018780;28;20476;-64
2023/08/19 07:27:14;;;;;;;2.97;1.58;;;;;;;;;;5018634;28;20435;-63
2023/08/19 07:29:40;;;;;;;2.85;1.20;;;;;;;;;;5018651;28;20079;-63
2023/08/19 07:32:06;;;;;;;1.95;1.20;;;;;;;;;;5018607;28;20539;-63
2023/08/19 07:34:32;;;;;;;2.00;1.10;;;;;;;;;;5018621;28;20360;-63
2023/08/19 07:36:57;;;;;;;2.22;1.27;;;;;;;;;;5034543;28;20029;-63
2023/08/19 07:39:25;;;;;;;2.35;1.30;;;;;;;;;;5034497;28;20029;-63
2023/08/19 07:41:50;;;;;;;3.90;1.55;;;;;;;;;;5018401;28;20029;-63
2023/08/19 07:44:16;;;;;;;2.20;1.33;;;;;;;;;;5018153;28;20075;-63
2023/08/19 07:46:42;;;;;;;2.67;1.50;;;;;;;;;;5018406;28;20029;-62
2023/08/19 07:49:07;;;;;;;3.00;1.40;;;;;;;;;;5016745;28;20029;-62
2023/08/19 07:51:33;;;;;;;2.58;1.40;;;;;;;;;;5016271;28;20101;-61
2023/08/19 07:53:58;;;;;;;2.85;1.27;;;;;;;;;;5016017;28;20031;-62
2023/08/19 07:56:24;;;;;;;2.55;1.38;;;;;;;;;;5015846;28;20036;-64
2023/08/19 07:58:49;;;;;;;3.47;1.38;;;;;;;;;;5015775;28;20407;-62
2023/08/19 08:01:15;;;;;;;2.20;1.30;;;;;;;;;;5016020;28;20032;-61
2023/08/19 08:03:41;;;;;;;2.03;1.23;;;;;;;;;;5015420;28;20391;-62
2023/08/19 08:06:06;;;;;;;2.58;1.33;;;;;;;;;;5016539;28;20026;-63
2023/08/19 08:08:32;;;;;;;1.98;1.30;;;;;;;;;;5017858;28;20041;-62
2023/08/19 08:10:57;;;;;;;2.58;1.48;;;;;;;;;;5017788;28;20063;-65
2023/08/19 08:13:22;;;;;;;2.30;1.35;;;;;;;;;;5034198;28;20413;-64
2023/08/19 08:15:48;;;;;;;2.20;1.52;;;;;;;;;;5034207;28;20022;-63
2023/08/19 08:18:14;;;;;;;2.17;1.40;;;;;;;;;;5034123;28;20031;-63
2023/08/19 08:20:39;;;;;;;2.00;1.10;;;;;;;;;;5017797;28;20032;-63
2023/08/19 08:23:05;;;;;;;2.53;1.30;;;;;;;;;;5017718;28;20053;-63
2023/08/19 08:25:31;;;;;;;2.28;1.42;;;;;;;;;;5017703;28;20460;-63
2023/08/19 08:27:56;;;;;;;3.28;1.45;;;;;;;;;;5017604;28;20033;-63
2023/08/19 08:30:22;;;;;;;2.40;1.30;;;;;;;;;;5017327;28;20033;-63
2023/08/19 08:32:47;;;;;;;2.97;1.40;;;;;;;;;;5017410;28;20124;-63
2023/08/19 08:35:13;;;;;;;3.17;1.45;;;;;;;;;;5017510;28;20071;-64
2023/08/19 08:37:38;;;;;;;2.60;1.40;;;;;;;;;;5017473;28;20377;-62
2023/08/19 08:40:04;;;;;;;2.50;1.40;;;;;;;;;;5016986;28;20372;-63
2023/08/19 08:42:30;;;;;;;2.45;1.40;;;;;;;;;;5017888;28;20044;-63
2023/08/19 08:44:56;;;;;;;2.00;1.17;;;;;;;;;;5033731;28;20349;-63
2023/08/19 08:47:22;;;;;;;2.60;1.55;;;;;;;;;;5017183;28;20025;-63
2023/08/19 08:49:49;;;;;;;2.42;1.40;;;;;;;;;;5000803;28;20376;-63
2023/08/19 08:52:14;;;;;;;2.10;1.30;;;;;;;;;;5033151;28;20099;-63
2023/08/19 08:54:41;;;;;;;3.15;1.67;;;;;;;;;;5017891;28;20061;-61
2023/08/19 08:57:07;;;;;;;2.72;1.40;;;;;;;;;;5000399;28;20427;-62
2023/08/19 08:59:33;;;;;;;2.50;1.38;;;;;;;;;;5016835;28;20025;-61
2023/08/19 09:01:58;;;;;;;2.35;1.40;;;;;;;;;;5017000;28;20357;-62
2023/08/19 09:04:26;;;;;;;2.78;1.30;;;;;;;;;;5016115;28;20083;-62
2023/08/19 09:06:56;;;;;;;2.65;1.30;;;;;;;;;;5000427;28;20026;-62
2023/08/19 09:09:23;;;;;;;3.22;1.38;;;;;;;;;;5015455;28;20036;-64
2023/08/19 09:11:50;;;;;;;2.05;1.20;;;;;;;;;;5033281;28;20049;-62
2023/08/19 09:14:33;;;;;;;2.33;1.35;;;;;;;;;;5016024;28;20499;-62
2023/08/19 09:16:58;;;;;;;3.17;1.50;;;;;;;;;;5016484;28;20025;-62
2023/08/19 09:19:24;;;;;;;1.92;1.30;;;;;;;;;;5016383;28;20024;-61
2023/08/19 09:21:49;;;;;;;2.80;1.50;;;;;;;;;;5003609;28;20026;-64
2023/08/19 09:24:16;;;;;;;2.88;1.40;;;;;;;;;;4996920;28;20025;-63
2023/08/19 09:26:41;;;;;;;2.88;1.50;;;;;;;;;;4997291;28;20182;-63
2023/08/19 09:29:07;;;;;;;2.10;1.23;;;;;;;;;;4996963;28;20073;-64
2023/08/19 09:31:33;;;;;;;2.85;1.60;;;;;;;;;;4996704;28;20452;-63
2023/08/19 09:33:58;;;;;;;2.63;1.50;;;;;;;;;;5015534;28;20017;-62
2023/08/19 09:36:24;;;;;;;2.60;1.45;;;;;;;;;;5016260;28;20422;-63
2023/08/19 09:38:54;;;;;;;2.30;1.40;;;;;;;;;;4999595;28;20036;-64
2023/08/19 09:41:20;;;;;;;2.83;1.52;;;;;;;;;;5016059;28;20041;-63
2023/08/19 09:43:46;;;;;;;3.75;1.60;;;;;;;;;;5015431;28;20070;-62
2023/08/19 09:46:13;;;;;;;3.47;1.58;;;;;;;;;;5016131;28;20056;-63
2023/08/19 09:48:39;;;;;;;2.70;1.60;;;;;;;;;;5016107;28;20030;-63
2023/08/19 09:51:08;;;;;;;4.07;1.58;;;;;;;;;;5016116;28;20025;-62
2023/08/19 09:53:36;;;;;;;2.30;1.58;;;;;;;;;;5032560;28;20032;-63
2023/08/19 09:56:02;;;;;;;4.40;1.67;;;;;;;;;;5015556;28;20032;-63
2023/08/19 09:58:27;;;;;;;2.97;1.50;;;;;;;;;;5015834;28;20029;-64
2023/08/19 10:00:53;;;;;;;3.40;1.58;;;;;;;;;;5014847;28;20038;-62
2023/08/19 10:03:19;;;;;;;3.92;1.60;;;;;;;;;;5047417;28;20065;-62
2023/08/19 10:05:48;;;;;;;4.82;1.95;;;;;;;;;;5048269;28;20030;-62
2023/08/19 10:08:18;;;;;;;2.78;1.45;;;;;;;;;;5031147;28;20044;-64
2023/08/19 10:10:44;;;;;;;3.33;1.52;;;;;;;;;;5022102;28;20033;-65
2023/08/19 10:13:11;;;;;;;3.03;2.05;;;;;;;;;;5017004;28;20029;-65
2023/08/19 10:15:38;;;;;;;3.97;1.65;;;;;;;;;;5015908;28;20020;-65
2023/08/19 10:18:07;;;;;;;3.60;1.40;;;;;;;;;;5019363;28;20535;-65
2023/08/19 10:20:33;;;;;;;2.92;1.77;;;;;;;;;;5019569;28;20515;-65
2023/08/19 10:23:00;;;;;;;3.40;1.70;;;;;;;;;;5036207;28;20068;-65
2023/08/19 10:25:27;;;;;;;3.08;1.80;;;;;;;;;;5019914;28;20021;-65
2023/08/19 10:27:53;;;;;;;4.93;1.67;;;;;;;;;;5019604;28;20036;-65
2023/08/19 10:30:22;;;;;;;3.10;1.67;;;;;;;;;;5019727;28;20134;-65
2023/08/19 10:32:47;;;;;;;3.40;1.80;;;;;;;;;;5019631;28;20029;-65
2023/08/19 10:35:13;;;;;;;2.85;1.73;;;;;;;;;;5019609;28;20159;-65
2023/08/19 10:37:42;;;;;;;2.88;1.70;;;;;;;;;;5037384;28;20365;-65
2023/08/19 10:40:11;;;;;;;4.13;1.60;;;;;;;;;;5038564;28;20021;-65
2023/08/19 10:42:37;;;;;;;4.72;2.30;;;;;;;;;;5039233;28;20158;-65
2023/08/19 10:45:23;;;;;;;4.45;2.03;;;;;;;;;;5038829;28;20111;-64
2023/08/19 10:47:52;;;;;;;2.47;1.60;;;;;;;;;;4999550;28;20042;-65
2023/08/19 10:50:18;;;;;;;4.18;1.77;;;;;;;;;;5016159;28;20120;-65
2023/08/19 10:53:12;;;;;;;3.83;1.65;;;;;;;;;;5024961;28;20112;-65
2023/08/19 10:55:54;;;;;;;3.45;1.73;;;;;;;;;;5030125;28;20033;-65
2023/08/19 10:58:20;;;;;;;3.13;1.70;;;;;;;;;;5038741;28;20079;-65
2023/08/19 11:00:47;;;;;;;4.22;1.90;;;;;;;;;;5054836;28;20542;-65
2023/08/19 11:03:12;;;;;;;3.70;1.52;;;;;;;;;;5038408;28;20115;-65
2023/08/19 11:05:46;;;;;;;3.13;1.75;;;;;;;;;;5039935;28;20167;-66
2023/08/19 11:08:12;;;;;;;2.58;1.58;;;;;;;;;;5035260;28;20094;-62
2023/08/19 11:10:38;;;;;;;2.78;1.55;;;;;;;;;;5018280;28;20183;-63
2023/08/19 11:13:05;;;;;;;3.35;1.70;;;;;;;;;;5035124;28;20495;-63
2023/08/19 11:15:31;;;;;;;3.75;1.70;;;;;;;;;;5019476;28;20507;-62
2023/08/19 11:17:56;;;;;;;2.90;1.63;;;;;;;;;;5019475;28;20029;-62
2023/08/19 11:20:27;;;;;;;6.15;1.88;;;;;;;;;;5017374;28;20033;-64
2023/08/19 11:22:52;;;;;;;7.88;1.95;;;;;;;;;;5015291;28;20022;-63
2023/08/19 11:25:18;;;;;;;3.67;1.70;;;;;;;;;;5041856;28;20436;-62
2023/08/19 11:27:44;;;;;;;3.70;1.63;;;;;;;;;;5035642;28;20025;-63
2023/08/19 11:30:11;;;;;;;4.15;1.90;;;;;;;;;;5018611;28;20025;-64
2023/08/19 11:32:36;;;;;;;4.80;1.90;;;;;;;;;;5034967;28;20033;-63
2023/08/19 11:35:02;;;;;;;3.20;1.77;;;;;;;;;;5019133;28;20072;-63
2023/08/19 11:37:29;;;;;;;7.60;5.13;;;;;;;;;;5018466;28;20033;-63
2023/08/19 11:39:54;;;;;;;28.55;25.85;;;;;;;;;;5017806;28;20112;-64
2023/08/19 11:42:20;;;;;;;25.65;23.35;;;;;;;;;;5001668;28;20441;-64
2023/08/19 11:44:45;;;;;;;18.77;16.88;;;;;;;;;;5018371;28;20448;-63
2023/08/19 11:47:11;;;;;;;16.08;14.38;;;;;;;;;;5018325;28;20384;-63
2023/08/19 11:49:37;;;;;;;13.45;12.15;;;;;;;;;;5034365;28;20025;-63
2023/08/19 11:52:02;;;;;;;14.43;12.10;;;;;;;;;;5018243;28;20486;-63
2023/08/19 11:54:28;;;;;;;12.40;11.07;;;;;;;;;;5018193;28;20029;-64
2023/08/19 11:56:55;;;;;;;15.43;11.50;;;;;;;;;;5017714;28;20130;-63
2023/08/19 11:59:30;;;;;;;13.30;11.13;;;;;;;;;;5033269;28;20055;-64
2023/08/19 12:01:57;;;;;;;12.95;10.95;;;;;;;;;;5034206;28;20112;-62
2023/08/19 12:04:23;;;;;;;14.20;9.70;;;;;;;;;;5034708;28;20037;-64
2023/08/19 12:06:49;;;;;;;11.63;10.32;;;;;;;;;;5017552;28;20025;-63
2023/08/19 12:09:17;;;;;;;11.65;9.55;;;;;;;;;;5017438;28;20171;-63
2023/08/19 12:11:46;;;;;;;11.43;9.60;;;;;;;;;;5034398;28;20025;-63
2023/08/19 12:14:12;;;;;;;11.25;10.00;;;;;;;;;;5033116;28;20022;-62
2023/08/19 12:16:37;;;;;;;11.60;10.27;;;;;;;;;;5034117;28;20531;-63
2023/08/19 12:19:03;;;;;;;12.95;9.98;;;;;;;;;;5017106;28;20029;-63
2023/08/19 12:21:29;;;;;;;13.23;10.10;;;;;;;;;;5028171;28;20491;-63
2023/08/19 12:23:55;;;;;;;11.25;10.15;;;;;;;;;;5033448;28;20013;-63
2023/08/19 12:26:21;;;;;;;11.02;10.02;;;;;;;;;;5017730;28;20037;-63
2023/08/19 12:28:47;;;;;;;11.32;10.07;;;;;;;;;;5017194;28;20036;-62
2023/08/19 12:31:12;;;;;;;10.57;9.48;;;;;;;;;;5017523;28;20032;-62
2023/08/19 12:33:39;;;;;;;10.30;9.20;;;;;;;;;;5018113;28;20033;-63
2023/08/19 12:36:05;;;;;;;11.52;10.45;;;;;;;;;;5017841;28;20388;-64
2023/08/19 12:38:30;;;;;;;10.95;9.95;;;;;;;;;;5016735;28;20029;-63
2023/08/19 12:40:56;;;;;;;10.40;9.45;;;;;;;;;;5017091;28;20118;-63
2023/08/19 12:43:22;;;;;;;9.68;8.77;;;;;;;;;;5017262;28;20465;-63
2023/08/19 12:45:47;;;;;;;9.75;8.88;;;;;;;;;;5033722;28;20075;-62
2023/08/19 12:48:13;;;;;;;9.55;8.68;;;;;;;;;;5017244;28;20446;-63
2023/08/19 12:50:38;;;;;;;9.13;8.23;;;;;;;;;;5016836;28;20072;-63
2023/08/19 12:53:04;;;;;;;9.02;8.15;;;;;;;;;;5016432;28;20452;-63
2023/08/19 12:55:30;;;;;;;10.35;8.18;;;;;;;;;;5033436;28;20025;-63
2023/08/19 12:57:56;;;;;;;9.10;8.20;;;;;;;;;;5016257;28;20029;-63
2023/08/19 13:00:22;;;;;;;8.38;7.60;;;;;;;;;;5015991;28;20042;-63
2023/08/19 13:02:48;;;;;;;8.52;7.68;;;;;;;;;;5016829;28;20021;-64
2023/08/19 13:05:14;;;;;;;8.68;7.35;;;;;;;;;;5015666;28;20430;-63
2023/08/19 13:07:40;;;;;;;7.80;7.10;;;;;;;;;;5016618;28;20104;-63
2023/08/19 13:10:06;;;;;;;7.38;6.68;;;;;;;;;;5033319;28;20033;-63
2023/08/19 13:12:35;;;;;;;8.00;7.20;;;;;;;;;;5016732;28;20448;-63
2023/08/19 13:15:01;;;;;;;7.15;6.45;;;;;;;;;;5033033;28;20083;-63
2023/08/19 13:17:27;;;;;;;7.60;6.88;;;;;;;;;;5019847;28;20029;-64
2023/08/19 13:19:54;;;;;;;7.10;6.40;;;;;;;;;;5032028;28;20022;-62
2023/08/19 13:22:21;;;;;;;6.97;6.38;;;;;;;;;;5033046;28;20029;-64
2023/08/19 13:24:47;;;;;;;7.78;6.70;;;;;;;;;;5000100;28;20034;-62
2023/08/19 13:27:13;;;;;;;6.82;6.05;;;;;;;;;;5016553;28;20461;-63
2023/08/19 13:29:38;;;;;;;7.18;6.47;;;;;;;;;;5032529;28;20021;-63
2023/08/19 13:32:04;;;;;;;8.73;7.85;;;;;;;;;;5016482;28;20423;-64
2023/08/19 13:34:32;;;;;;;8.38;7.55;;;;;;;;;;5033228;28;20036;-64
2023/08/19 13:36:58;;;;;;;7.95;7.15;;;;;;;;;;5032844;28;20025;-63
2023/08/19 13:39:24;;;;;;;7.15;6.45;;;;;;;;;;5016299;28;20033;-63
2023/08/19 13:41:49;;;;;;;6.97;6.32;;;;;;;;;;4999582;28;20025;-63
2023/08/19 13:44:15;;;;;;;6.60;6.05;;;;;;;;;;5035883;28;20503;-63
2023/08/19 13:46:40;;;;;;;6.32;5.78;;;;;;;;;;5043076;28;20083;-65
2023/08/19 13:49:06;;;;;;;6.22;5.63;;;;;;;;;;5016257;28;20048;-65
2023/08/19 13:51:32;;;;;;;6.72;5.65;;;;;;;;;;5015930;28;20049;-65
2023/08/19 13:53:57;;;;;;;8.00;5.97;;;;;;;;;;5032384;28;20032;-65
2023/08/19 13:56:23;;;;;;;5.85;5.28;;;;;;;;;;5029207;28;20066;-64
2023/08/19 13:58:48;;;;;;;6.30;5.28;;;;;;;;;;5035712;28;20467;-63
2023/08/19 14:01:15;;;;;;;5.63;4.80;;;;;;;;;;5019702;28;20029;-63
2023/08/19 14:03:40;;;;;;;5.68;5.18;;;;;;;;;;5035264;28;20430;-65
2023/08/19 14:06:09;;;;;;;5.15;4.65;;;;;;;;;;5024023;28;20041;-65
2023/08/19 14:08:36;;;;;;;5.15;4.50;;;;;;;;;;5015938;28;20365;-64
2023/08/19 14:11:05;;;;;;;5.47;4.93;;;;;;;;;;5015910;28;20112;-65
2023/08/19 14:13:34;;;;;;;5.00;4.50;;;;;;;;;;5015306;28;20033;-65
2023/08/19 14:16:00;;;;;;;5.10;4.60;;;;;;;;;;5012310;28;20028;-65
2023/08/19 14:18:26;;;;;;;6.93;4.65;;;;;;;;;;5012785;28;20473;-63
2023/08/19 14:20:51;;;;;;;5.18;4.68;;;;;;;;;;5016571;28;20045;-65
2023/08/19 14:23:17;;;;;;;5.50;4.93;;;;;;;;;;5026350;28;20136;-64
2023/08/19 14:25:42;;;;;;;5.40;4.72;;;;;;;;;;5020705;28;20033;-63
2023/08/19 14:28:08;;;;;;;5.75;4.65;;;;;;;;;;5015093;28;20033;-63
2023/08/19 14:30:33;;;;;;;4.50;4.10;;;;;;;;;;5031378;28;20067;-65
2023/08/19 14:32:59;;;;;;;5.05;4.15;;;;;;;;;;5015389;28;20488;-63
2023/08/19 14:35:24;;;;;;;6.05;3.92;;;;;;;;;;5015207;28;20037;-63